Little Rock, Illinois
Current Conditions -  °F | °C
As of 5:52 AM on Friday 28 Nov 2014 (Local Time) from KARR Reporting Station
Overcast Overcast  
Wind Chill:   Ceiling: 7500
Heat Index: 19°   Visibility: 10mi
Dew Point: 10°   Wind: 8mph
Humidity: 68%   Direction: 140°SE
Pressure: 30.29"   Gusts: NA
Location:  41.6798°N, 88.537°W
Report Text: KARR 281152Z AUTO 14007KT 10SM OVC075 M07/M12 A3029 RMK AO2 SLP270 T10721122 11072 21106 58023 $
Loading
Personal Weather Stations






























Interactive Weather Map New forecast layout! Learn more

10-Day Weather Forecast

Advertisements
Track Severe Weather on mobile